createdAt,value
2022-12-31T00:00:14.845Z,3.15
2022-12-31T00:02:41.833Z,3.33
2022-12-31T00:05:10.338Z,4.22
2022-12-31T00:10:04.505Z,3.40
2022-12-31T00:12:31.394Z,3.75
2022-12-31T00:14:58.319Z,3.70
2022-12-31T00:17:25.191Z,6.25
2022-12-31T00:19:52.117Z,7.20
2022-12-31T00:22:18.932Z,5.22
2022-12-31T00:24:45.807Z,4.10
2022-12-31T00:27:12.714Z,4.40
2022-12-31T00:29:39.517Z,4.25
2022-12-31T00:32:06.500Z,4.03
2022-12-31T00:34:33.324Z,4.05
2022-12-31T00:37:00.129Z,3.40
2022-12-31T00:39:26.964Z,3.83
2022-12-31T00:41:53.927Z,4.15
2022-12-31T00:44:20.828Z,3.65
2022-12-31T00:46:48.436Z,5.50
2022-12-31T00:49:15.536Z,8.55
2022-12-31T00:51:42.451Z,4.13
2022-12-31T00:54:10.139Z,5.40
2022-12-31T00:56:36.903Z,4.68
2022-12-31T00:59:04.053Z,3.80
2022-12-31T01:01:34.780Z,4.82
2022-12-31T01:04:05.576Z,3.63
2022-12-31T01:06:32.706Z,3.53
2022-12-31T01:09:00.048Z,3.90
2022-12-31T01:11:29.607Z,4.03
2022-12-31T01:14:00.848Z,5.47
2022-12-31T01:16:33.962Z,4.30
2022-12-31T01:19:03.789Z,4.07
2022-12-31T01:21:31.875Z,4.63
2022-12-31T01:23:59.838Z,3.42
2022-12-31T01:26:27.492Z,4.55
2022-12-31T01:28:54.646Z,5.00
2022-12-31T01:31:23.542Z,4.65
2022-12-31T01:33:51.685Z,3.72
2022-12-31T01:36:26.239Z,4.25
2022-12-31T01:38:54.876Z,3.80
2022-12-31T01:41:24.827Z,4.13
2022-12-31T01:43:58.661Z,4.20
2022-12-31T01:46:36.432Z,5.00
2022-12-31T01:49:30.547Z,5.75
2022-12-31T01:52:06.638Z,4.47
2022-12-31T01:54:39.713Z,5.18
2022-12-31T01:57:09.063Z,4.95
2022-12-31T01:59:36.245Z,4.90
2022-12-31T02:02:04.182Z,4.38
2022-12-31T02:04:31.525Z,4.40
2022-12-31T02:07:02.474Z,4.65
2022-12-31T02:09:30.473Z,13.35
2022-12-31T02:11:57.419Z,8.38
2022-12-31T02:14:28.821Z,5.97
2022-12-31T02:17:17.615Z,5.28
2022-12-31T02:20:05.133Z,5.40
2022-12-31T02:22:53.272Z,6.75
2022-12-31T02:25:47.841Z,5.22
2022-12-31T02:28:26.846Z,5.35
2022-12-31T02:31:25.633Z,5.75
2022-12-31T02:34:01.300Z,4.25
2022-12-31T02:36:36.347Z,4.45
2022-12-31T02:39:06.209Z,5.00
2022-12-31T02:41:51.514Z,6.28
2022-12-31T02:44:24.476Z,4.82
2022-12-31T02:47:05.001Z,5.03
2022-12-31T02:49:39.815Z,4.50
2022-12-31T02:52:11.168Z,5.10
2022-12-31T02:55:16.191Z,5.90
2022-12-31T02:57:52.552Z,5.30
2022-12-31T03:00:38.640Z,5.03
2022-12-31T03:03:08.015Z,5.45
2022-12-31T03:05:44.239Z,5.38
2022-12-31T03:08:11.111Z,5.13
2022-12-31T03:10:38.022Z,4.80
2022-12-31T03:13:04.837Z,5.47
2022-12-31T03:15:34.246Z,5.25
2022-12-31T03:18:56.366Z,4.80
2022-12-31T03:21:41.592Z,6.05
2022-12-31T03:24:27.159Z,5.35
2022-12-31T03:26:53.996Z,4.90
2022-12-31T03:29:20.860Z,5.05
2022-12-31T03:31:47.743Z,5.47
2022-12-31T03:34:15.670Z,5.13
2022-12-31T03:36:42.550Z,4.93
2022-12-31T03:39:09.416Z,5.63
2022-12-31T03:41:36.255Z,5.20
2022-12-31T03:44:03.102Z,5.07
2022-12-31T03:46:30.011Z,5.82
2022-12-31T03:48:56.925Z,5.28
2022-12-31T03:51:23.789Z,5.68
2022-12-31T03:53:50.631Z,5.35
2022-12-31T03:56:17.452Z,5.50
2022-12-31T03:58:44.295Z,5.10
2022-12-31T04:01:11.235Z,6.18
2022-12-31T04:03:38.104Z,5.40
2022-12-31T04:06:04.969Z,5.10
2022-12-31T04:08:31.831Z,5.22
2022-12-31T04:10:58.811Z,5.32
2022-12-31T04:13:25.610Z,4.45
2022-12-31T04:15:52.677Z,4.53
2022-12-31T04:18:19.542Z,5.47
2022-12-31T04:20:46.403Z,4.82
2022-12-31T04:23:13.276Z,6.43
2022-12-31T04:25:40.152Z,5.13
2022-12-31T04:28:07.010Z,4.60
2022-12-31T04:30:33.903Z,5.65
2022-12-31T04:33:00.766Z,5.32
2022-12-31T04:35:27.602Z,5.47
2022-12-31T04:37:54.471Z,5.43
2022-12-31T04:40:21.318Z,5.57
2022-12-31T04:42:48.171Z,5.07
2022-12-31T04:45:15.058Z,5.07
2022-12-31T04:47:41.926Z,5.47
2022-12-31T04:50:08.919Z,5.40
2022-12-31T04:52:42.352Z,6.63
2022-12-31T04:55:09.941Z,5.43
2022-12-31T04:57:36.876Z,5.88
2022-12-31T05:00:04.012Z,5.10
2022-12-31T05:02:31.039Z,6.05
2022-12-31T05:04:58.002Z,7.22
2022-12-31T05:07:24.851Z,6.18
2022-12-31T05:09:51.674Z,5.00
2022-12-31T05:12:18.626Z,6.50
2022-12-31T05:14:45.459Z,7.28
2022-12-31T05:17:12.319Z,6.03
2022-12-31T05:19:39.203Z,6.57
2022-12-31T05:22:24.778Z,6.43
2022-12-31T05:24:52.390Z,6.30
2022-12-31T05:27:19.295Z,6.70
2022-12-31T05:29:46.086Z,7.22
2022-12-31T05:32:12.931Z,7.20
2022-12-31T05:34:39.819Z,6.40
2022-12-31T05:37:06.665Z,6.47
2022-12-31T05:39:33.516Z,6.60
2022-12-31T05:42:00.363Z,6.95
2022-12-31T05:44:27.250Z,6.75
2022-12-31T05:46:54.091Z,6.90
2022-12-31T05:49:20.982Z,7.50
2022-12-31T05:51:47.893Z,6.53
2022-12-31T05:54:14.822Z,7.57
2022-12-31T05:56:41.748Z,7.25
2022-12-31T05:59:08.571Z,7.30
2022-12-31T06:01:35.513Z,7.43
2022-12-31T06:04:02.501Z,8.20
2022-12-31T06:06:29.421Z,6.55
2022-12-31T06:08:56.274Z,7.20
2022-12-31T06:11:23.372Z,6.80
2022-12-31T06:13:50.229Z,6.97
2022-12-31T06:16:17.115Z,6.72
2022-12-31T06:18:43.986Z,6.65
2022-12-31T06:21:10.805Z,6.82
2022-12-31T06:23:37.636Z,6.95
2022-12-31T06:26:05.470Z,7.20
2022-12-31T06:28:32.522Z,6.20
2022-12-31T06:31:01.254Z,7.10
2022-12-31T06:33:28.922Z,7.55
2022-12-31T06:36:00.466Z,6.72
2022-12-31T06:38:29.006Z,7.70
2022-12-31T06:40:55.897Z,7.97
2022-12-31T06:43:23.419Z,6.88
2022-12-31T06:45:50.295Z,6.95
2022-12-31T06:48:17.183Z,7.65
2022-12-31T06:50:44.144Z,7.10
2022-12-31T06:53:10.983Z,12.75
2022-12-31T06:55:38.244Z,10.55
2022-12-31T06:58:05.328Z,8.25
2022-12-31T07:00:32.379Z,7.38
2022-12-31T07:03:20.558Z,8.43
2022-12-31T07:05:52.752Z,7.78
2022-12-31T07:08:22.386Z,7.53
2022-12-31T07:11:01.497Z,7.90
2022-12-31T07:13:46.447Z,7.60
2022-12-31T07:16:38.042Z,7.35
2022-12-31T07:19:22.182Z,7.22
2022-12-31T07:21:51.506Z,7.50
2022-12-31T07:24:18.751Z,7.32
2022-12-31T07:27:00.353Z,7.63
2022-12-31T07:29:48.943Z,6.85
2022-12-31T07:32:37.255Z,6.57
2022-12-31T07:35:12.047Z,8.48
2022-12-31T07:37:57.607Z,8.18
2022-12-31T07:41:07.348Z,8.07
2022-12-31T07:43:44.713Z,8.63
2022-12-31T07:46:22.305Z,8.48
2022-12-31T07:48:49.527Z,8.27
2022-12-31T07:51:22.690Z,9.00
2022-12-31T07:53:49.535Z,9.45
2022-12-31T07:56:16.453Z,9.35
2022-12-31T07:58:58.767Z,8.75
2022-12-31T08:01:41.504Z,9.23
2022-12-31T08:04:28.728Z,8.98
2022-12-31T08:07:19.435Z,11.10
2022-12-31T08:10:04.164Z,9.30
2022-12-31T08:12:35.251Z,9.27
2022-12-31T08:15:02.381Z,9.63
2022-12-31T08:17:29.453Z,10.35
2022-12-31T08:19:56.643Z,9.25
2022-12-31T08:22:39.137Z,9.90
2022-12-31T08:25:28.144Z,9.15
2022-12-31T08:28:33.333Z,9.57
2022-12-31T08:31:22.662Z,9.30
2022-12-31T08:34:16.288Z,11.68
2022-12-31T08:36:48.973Z,10.85
2022-12-31T08:39:36.679Z,11.80
2022-12-31T08:42:10.076Z,9.80
2022-12-31T08:44:43.911Z,11.00
2022-12-31T08:47:58.006Z,11.43
2022-12-31T08:50:27.303Z,15.38
2022-12-31T08:52:54.669Z,12.50
2022-12-31T08:55:21.814Z,11.45
2022-12-31T08:58:34.428Z,11.63
2022-12-31T09:01:01.754Z,11.05
2022-12-31T09:03:37.473Z,12.07
2022-12-31T09:06:20.436Z,11.30
2022-12-31T09:09:06.000Z,11.27
2022-12-31T09:11:50.911Z,11.80
2022-12-31T09:14:44.178Z,11.75
2022-12-31T09:17:34.790Z,11.38
2022-12-31T09:20:02.186Z,11.30
2022-12-31T09:22:29.234Z,11.80
2022-12-31T09:24:56.209Z,12.82
2022-12-31T09:27:30.387Z,12.38
2022-12-31T09:30:03.711Z,13.60
2022-12-31T09:32:58.583Z,12.52
2022-12-31T09:35:30.468Z,14.02
2022-12-31T09:38:12.978Z,12.85
2022-12-31T09:41:17.524Z,12.75
2022-12-31T09:44:09.158Z,12.50
2022-12-31T09:46:45.301Z,13.00
2022-12-31T09:49:33.775Z,14.38
2022-12-31T09:52:25.570Z,13.15
2022-12-31T09:55:27.711Z,12.85
2022-12-31T09:58:01.895Z,13.15
2022-12-31T10:00:41.265Z,14.07
2022-12-31T10:03:46.986Z,13.63
2022-12-31T10:06:29.343Z,14.00
2022-12-31T10:11:44.232Z,13.80
2022-12-31T10:14:29.975Z,13.95
2022-12-31T10:17:16.900Z,12.77
2022-12-31T10:20:31.184Z,13.82
2022-12-31T10:23:06.709Z,14.05
2022-12-31T10:26:01.435Z,12.88
2022-12-31T10:28:49.333Z,13.25
2022-12-31T10:31:32.683Z,14.20
2022-12-31T10:34:42.398Z,13.35
2022-12-31T10:37:23.754Z,14.18
2022-12-31T10:40:09.023Z,16.40
2022-12-31T10:42:41.770Z,14.48
2022-12-31T10:45:33.579Z,14.15
2022-12-31T10:48:38.306Z,13.75
2022-12-31T10:51:20.842Z,14.02
2022-12-31T10:54:25.397Z,14.45
2022-12-31T10:57:29.627Z,15.13
2022-12-31T10:59:56.432Z,14.52
2022-12-31T11:02:32.398Z,13.85
2022-12-31T11:05:24.271Z,15.00
2022-12-31T11:08:08.533Z,14.35
2022-12-31T11:10:52.060Z,15.27
2022-12-31T11:13:48.648Z,14.73
2022-12-31T11:16:24.607Z,14.73
2022-12-31T11:19:19.121Z,13.75
2022-12-31T11:22:01.134Z,14.45
2022-12-31T11:24:43.370Z,14.70
2022-12-31T11:27:19.425Z,14.07
2022-12-31T11:30:14.066Z,14.20
2022-12-31T11:33:02.425Z,14.43
2022-12-31T11:35:57.500Z,15.07
2022-12-31T11:39:01.704Z,15.60
2022-12-31T11:41:50.067Z,14.35
2022-12-31T11:44:26.870Z,15.32
2022-12-31T11:47:10.074Z,14.70
2022-12-31T11:50:10.871Z,14.57
2022-12-31T11:53:15.683Z,15.55
2022-12-31T11:56:16.542Z,13.60
2022-12-31T11:58:50.265Z,14.95
2022-12-31T12:01:19.988Z,15.90
2022-12-31T12:03:48.116Z,15.45
2022-12-31T12:06:18.409Z,16.00
2022-12-31T12:08:46.447Z,16.77
2022-12-31T12:11:21.355Z,16.05
2022-12-31T12:13:48.410Z,15.77
2022-12-31T12:16:16.312Z,16.52
2022-12-31T12:18:50.203Z,16.73
2022-12-31T12:21:18.579Z,15.45
2022-12-31T12:24:02.283Z,15.93
2022-12-31T12:26:33.902Z,16.63
2022-12-31T12:29:18.794Z,15.88
2022-12-31T12:32:19.507Z,16.65
2022-12-31T12:34:49.915Z,16.67
2022-12-31T12:37:33.257Z,17.73
2022-12-31T12:40:33.437Z,16.95
2022-12-31T12:43:01.607Z,15.52
2022-12-31T12:45:38.207Z,16.00
2022-12-31T12:48:16.853Z,16.63
2022-12-31T12:50:47.893Z,16.83
2022-12-31T12:53:39.354Z,16.80
2022-12-31T12:56:18.960Z,16.02
2022-12-31T12:59:07.625Z,16.90
2022-12-31T13:01:43.366Z,16.05
2022-12-31T13:04:38.300Z,17.65
2022-12-31T13:07:38.318Z,16.70
2022-12-31T13:10:15.646Z,18.40
2022-12-31T13:13:23.887Z,16.42
2022-12-31T13:15:55.186Z,19.08
2022-12-31T13:18:44.348Z,17.17
2022-12-31T13:21:35.547Z,17.13
2022-12-31T13:24:14.478Z,16.85
2022-12-31T13:26:51.298Z,18.20
2022-12-31T13:29:23.620Z,18.02
2022-12-31T13:31:52.884Z,17.77
2022-12-31T13:34:29.222Z,16.73
2022-12-31T13:37:02.363Z,18.02
2022-12-31T13:39:33.452Z,18.10
2022-12-31T13:42:09.317Z,17.33
2022-12-31T13:45:14.858Z,18.38
2022-12-31T13:48:08.151Z,19.17
2022-12-31T13:50:42.544Z,17.88
2022-12-31T13:53:33.421Z,18.33
2022-12-31T13:56:06.536Z,17.95
2022-12-31T13:58:39.595Z,19.10
2022-12-31T14:01:37.779Z,20.20
2022-12-31T14:04:10.181Z,20.10
2022-12-31T14:06:47.827Z,24.90
2022-12-31T14:09:28.871Z,22.77
2022-12-31T14:12:10.811Z,20.58
2022-12-31T14:15:05.796Z,20.30
2022-12-31T14:17:36.484Z,21.58
2022-12-31T14:20:25.496Z,21.17
2022-12-31T14:22:58.442Z,20.52
2022-12-31T14:25:42.980Z,21.77
2022-12-31T14:28:17.897Z,21.67
2022-12-31T14:30:46.308Z,21.70
2022-12-31T14:33:31.270Z,23.50
2022-12-31T14:36:10.672Z,21.98
2022-12-31T14:39:06.231Z,24.33
2022-12-31T14:41:53.442Z,23.08
2022-12-31T14:44:29.990Z,23.08
2022-12-31T14:47:20.262Z,28.33
2022-12-31T14:50:10.037Z,23.50
2022-12-31T14:52:48.754Z,23.70
2022-12-31T14:55:15.597Z,22.55
2022-12-31T14:58:26.055Z,25.85
2022-12-31T15:00:38.413Z,27.00
2022-12-31T15:03:25.783Z,26.55
2022-12-31T15:06:01.897Z,24.20
2022-12-31T15:08:47.869Z,25.35
2022-12-31T15:11:28.773Z,25.13
2022-12-31T15:14:13.797Z,26.33
2022-12-31T15:17:21.752Z,25.05
2022-12-31T15:20:03.533Z,25.98
2022-12-31T15:24:57.811Z,24.27
2022-12-31T15:27:27.370Z,26.42
2022-12-31T15:29:54.324Z,25.05
2022-12-31T15:32:29.065Z,27.70
2022-12-31T15:35:04.095Z,25.02
2022-12-31T15:37:36.048Z,25.17
2022-12-31T15:40:25.076Z,25.65
2022-12-31T15:43:28.274Z,26.30
2022-12-31T15:45:56.670Z,25.98
2022-12-31T15:49:03.663Z,26.55
2022-12-31T15:51:53.799Z,24.85
2022-12-31T15:54:44.259Z,25.67
2022-12-31T15:57:24.535Z,24.05
2022-12-31T15:59:58.950Z,26.27
2022-12-31T16:02:27.490Z,24.98
2022-12-31T16:04:55.618Z,24.58
2022-12-31T16:07:23.857Z,28.30
2022-12-31T16:09:57.554Z,23.80
2022-12-31T16:12:33.758Z,26.02
2022-12-31T16:15:03.180Z,25.05
2022-12-31T16:17:31.299Z,23.65
2022-12-31T16:19:59.829Z,23.85
2022-12-31T16:22:35.643Z,21.23
2022-12-31T16:25:29.692Z,23.15
2022-12-31T16:27:53.957Z,21.15
2022-12-31T16:30:25.132Z,22.55
2022-12-31T16:32:53.858Z,21.63
2022-12-31T16:35:32.390Z,22.05
2022-12-31T16:38:12.934Z,22.23
2022-12-31T16:40:41.787Z,22.50
2022-12-31T16:43:27.476Z,21.35
2022-12-31T16:45:58.151Z,21.10
2022-12-31T16:48:26.520Z,23.42
2022-12-31T16:50:55.914Z,23.80
2022-12-31T16:53:26.685Z,22.35
2022-12-31T16:56:08.856Z,21.87
2022-12-31T16:58:41.651Z,30.17
2022-12-31T17:01:24.890Z,25.25
2022-12-31T17:04:03.241Z,22.95
2022-12-31T17:06:33.414Z,22.58
2022-12-31T17:09:20.840Z,23.33
2022-12-31T17:12:25.765Z,23.52
2022-12-31T17:14:52.599Z,21.58
2022-12-31T17:17:25.684Z,20.95
2022-12-31T17:19:58.265Z,20.85
2022-12-31T17:22:34.311Z,22.02
2022-12-31T17:25:22.648Z,20.65
2022-12-31T17:27:54.476Z,19.83
2022-12-31T17:30:35.172Z,20.23
2022-12-31T17:33:09.224Z,20.55
2022-12-31T17:35:42.395Z,19.58
2022-12-31T17:38:28.163Z,20.23
2022-12-31T17:41:05.991Z,18.77
2022-12-31T17:43:37.456Z,19.05
2022-12-31T17:46:11.005Z,18.40
2022-12-31T17:48:38.015Z,22.40
2022-12-31T17:51:05.191Z,18.52
2022-12-31T17:53:32.044Z,19.23
2022-12-31T17:56:03.531Z,18.65
2022-12-31T17:58:43.493Z,19.50
2022-12-31T18:01:13.854Z,22.27
2022-12-31T18:03:40.831Z,20.45
2022-12-31T18:06:14.647Z,20.65
2022-12-31T18:08:43.696Z,20.20
2022-12-31T18:11:24.247Z,19.13
2022-12-31T18:13:51.251Z,19.38
2022-12-31T18:16:18.193Z,20.00
2022-12-31T18:18:45.538Z,19.88
2022-12-31T18:21:18.444Z,18.73
2022-12-31T18:23:47.981Z,20.90
2022-12-31T18:26:17.536Z,18.27
2022-12-31T18:28:44.401Z,23.83
2022-12-31T18:31:17.901Z,23.30
2022-12-31T18:33:45.121Z,20.08
2022-12-31T18:36:13.925Z,19.60
2022-12-31T18:38:41.330Z,19.75
2022-12-31T18:41:17.875Z,20.38
2022-12-31T18:43:45.112Z,21.08
2022-12-31T18:46:18.229Z,29.15
2022-12-31T18:48:45.285Z,31.75
2022-12-31T18:51:19.204Z,23.42
2022-12-31T18:53:46.419Z,20.85
2022-12-31T18:56:16.461Z,19.63
2022-12-31T18:58:44.151Z,17.58
2022-12-31T19:01:29.500Z,18.90
2022-12-31T19:04:02.111Z,21.15
2022-12-31T19:06:30.229Z,17.70
2022-12-31T19:08:59.132Z,20.05
2022-12-31T19:11:27.691Z,18.50
2022-12-31T19:13:54.523Z,17.92
2022-12-31T19:16:21.395Z,16.88
2022-12-31T19:18:49.540Z,16.67
2022-12-31T19:21:22.727Z,18.33
2022-12-31T19:23:51.017Z,18.63
2022-12-31T19:26:20.645Z,19.65
2022-12-31T19:28:49.248Z,20.42
2022-12-31T19:31:16.832Z,20.70
2022-12-31T19:33:44.335Z,22.58
2022-12-31T19:36:18.517Z,20.00
2022-12-31T19:38:46.576Z,19.45
2022-12-31T19:41:19.163Z,17.55
2022-12-31T19:43:47.285Z,18.67
2022-12-31T19:46:15.626Z,19.42
2022-12-31T19:48:43.211Z,18.10
2022-12-31T19:51:17.638Z,17.58
2022-12-31T19:53:45.964Z,18.73
2022-12-31T19:56:14.741Z,31.75
2022-12-31T19:58:41.677Z,32.60
2022-12-31T20:01:09.849Z,25.85
2022-12-31T20:03:36.863Z,22.42
2022-12-31T20:06:08.991Z,18.73
2022-12-31T20:08:38.072Z,18.48
2022-12-31T20:11:22.589Z,20.08
2022-12-31T20:13:52.222Z,20.42
2022-12-31T20:16:21.768Z,18.73
2022-12-31T20:18:50.609Z,17.17
2022-12-31T20:21:23.740Z,18.85
2022-12-31T20:23:52.422Z,17.90
2022-12-31T20:26:21.309Z,18.15
2022-12-31T20:28:48.554Z,22.23
2022-12-31T20:31:21.417Z,27.20
2022-12-31T20:33:48.486Z,21.95
2022-12-31T20:36:16.881Z,19.45
2022-12-31T20:38:44.719Z,20.08
2022-12-31T20:41:14.284Z,19.88
2022-12-31T20:43:41.588Z,20.70
2022-12-31T20:46:15.326Z,21.17
2022-12-31T20:48:43.042Z,22.45
2022-12-31T20:51:10.124Z,18.25
2022-12-31T20:53:37.005Z,17.33
2022-12-31T20:56:08.798Z,17.23
2022-12-31T20:58:36.526Z,18.38
2022-12-31T21:01:07.043Z,19.73
2022-12-31T21:04:04.250Z,19.33
2022-12-31T21:06:23.285Z,18.48
2022-12-31T21:08:50.412Z,18.48
2022-12-31T21:11:35.786Z,21.00
2022-12-31T21:14:02.730Z,21.95
2022-12-31T21:16:29.736Z,21.42
2022-12-31T21:18:56.713Z,23.52
2022-12-31T21:21:23.916Z,21.63
2022-12-31T21:23:50.823Z,20.50
2022-12-31T21:26:17.707Z,18.38
2022-12-31T21:28:45.053Z,18.30
2022-12-31T21:31:13.798Z,20.30
2022-12-31T21:33:45.280Z,19.85
2022-12-31T21:36:12.439Z,18.27
2022-12-31T21:38:39.491Z,17.48
2022-12-31T21:41:08.884Z,18.08
2022-12-31T21:43:35.740Z,18.85
2022-12-31T21:46:07.457Z,18.05
2022-12-31T21:48:34.463Z,20.30
2022-12-31T21:51:08.308Z,19.77
2022-12-31T21:53:37.368Z,35.83
2022-12-31T21:56:16.103Z,21.92
2022-12-31T21:59:08.668Z,23.10
2022-12-31T22:01:53.967Z,18.80
2022-12-31T22:04:59.611Z,17.38
2022-12-31T22:07:07.932Z,20.48
2022-12-31T22:09:34.852Z,24.48
2022-12-31T22:12:01.686Z,26.95
2022-12-31T22:14:28.525Z,28.10
2022-12-31T22:16:55.430Z,28.52
2022-12-31T22:19:22.246Z,46.50
2022-12-31T22:21:49.049Z,54.80
2022-12-31T22:24:15.968Z,57.63
2022-12-31T22:26:46.447Z,55.85
2022-12-31T22:29:13.683Z,57.50
2022-12-31T22:31:40.672Z,60.50
2022-12-31T22:34:07.690Z,57.15
2022-12-31T22:36:34.531Z,53.05
2022-12-31T22:39:01.401Z,54.83
2022-12-31T22:41:29.008Z,57.90
2022-12-31T22:44:03.552Z,52.60
2022-12-31T22:46:32.058Z,44.10
2022-12-31T22:49:00.330Z,41.05
2022-12-31T22:51:56.642Z,35.90
2022-12-31T22:54:14.906Z,31.45
2022-12-31T22:56:41.915Z,28.88
2022-12-31T22:59:09.351Z,28.50
2022-12-31T23:01:36.940Z,27.10
2022-12-31T23:04:04.235Z,23.80
2022-12-31T23:06:31.345Z,21.20
2022-12-31T23:09:16.687Z,28.02
2022-12-31T23:11:43.638Z,38.00
2022-12-31T23:14:35.536Z,17.60
2022-12-31T23:20:18.859Z,13.20
2022-12-31T23:23:05.517Z,20.52
2022-12-31T23:25:33.981Z,18.02
2022-12-31T23:28:01.194Z,19.98
2022-12-31T23:30:28.430Z,17.67
2022-12-31T23:32:55.396Z,12.30
2022-12-31T23:35:22.378Z,10.95
2022-12-31T23:37:49.253Z,8.93
2022-12-31T23:40:21.132Z,9.35
2022-12-31T23:42:49.701Z,8.90
2022-12-31T23:45:16.850Z,8.35
2022-12-31T23:47:43.896Z,9.15
2022-12-31T23:50:10.794Z,9.10
2022-12-31T23:52:37.637Z,8.30
2022-12-31T23:55:04.865Z,12.35
2022-12-31T23:57:31.751Z,12.75
2022-12-31T23:59:58.644Z,12.55
